Time;durP1;ratioP1;P1;durP2;ratioP2;P2;SDS_P1;SDS_P2;PMS_P1;PMS_P2;Temp;Humidity;BMP_temperature;BMP_pressure;BME280_temperature;BME280_humidity;BME280_pressure;Samples;Min_cycle;Max_cycle;Signal;HPM_P1;HPM_P2
2022/07/28 00:00:29;;;;;;;3.95;1.35;;;19.60;99.90;;;;;;4992452;28;20496;-71
2022/07/28 00:02:54;;;;;;;3.75;2.17;;;19.70;99.90;;;;;;4993771;28;20030;-71
2022/07/28 00:05:20;;;;;;;5.25;2.03;;;19.60;99.90;;;;;;4992324;28;20034;-71
2022/07/28 00:07:46;;;;;;;3.42;1.70;;;19.70;99.90;;;;;;4994261;28;20022;-71
2022/07/28 00:10:12;;;;;;;6.78;1.80;;;19.80;99.90;;;;;;4993466;28;20030;-70
2022/07/28 00:12:38;;;;;;;4.47;1.80;;;19.60;99.90;;;;;;4993531;28;20102;-71
2022/07/28 00:15:04;;;;;;;3.20;1.95;;;19.40;99.90;;;;;;4992584;28;20050;-71
2022/07/28 00:17:31;;;;;;;4.40;2.15;;;19.50;99.90;;;;;;4991619;28;20113;-71
2022/07/28 00:19:57;;;;;;;4.32;2.08;;;19.70;99.90;;;;;;4993091;28;20030;-71
2022/07/28 00:22:23;;;;;;;3.50;1.80;;;19.80;99.90;;;;;;4993638;28;20038;-71
2022/07/28 00:24:49;;;;;;;5.22;2.15;;;19.90;99.90;;;;;;4998008;28;20076;-71
2022/07/28 00:27:16;;;;;;;3.70;2.33;;;20.10;99.90;;;;;;4993022;28;20504;-70
2022/07/28 00:29:42;;;;;;;3.80;1.88;;;20.00;99.90;;;;;;4992808;28;20039;-71
2022/07/28 00:32:08;;;;;;;4.25;1.80;;;19.80;99.90;;;;;;4992203;28;20038;-71
2022/07/28 00:34:33;;;;;;;2.90;1.58;;;19.60;99.90;;;;;;4993179;28;20030;-70
2022/07/28 00:36:59;;;;;;;3.42;1.90;;;19.70;99.90;;;;;;4991955;28;20105;-71
2022/07/28 00:39:25;;;;;;;4.70;2.33;;;19.90;99.90;;;;;;4993122;28;20054;-71
2022/07/28 00:41:50;;;;;;;3.28;1.92;;;20.00;99.90;;;;;;4992166;28;20072;-70
2022/07/28 00:44:16;;;;;;;5.43;2.20;;;20.00;99.90;;;;;;4992017;28;20201;-71
2022/07/28 00:46:42;;;;;;;4.82;1.90;;;20.00;99.90;;;;;;4992105;28;20049;-71
2022/07/28 00:49:08;;;;;;;3.55;1.80;;;20.00;99.90;;;;;;4991943;28;20033;-71
2022/07/28 00:51:34;;;;;;;3.03;1.73;;;20.10;99.90;;;;;;4993244;28;20129;-71
2022/07/28 00:54:00;;;;;;;4.07;1.98;;;20.00;99.90;;;;;;4992085;28;20031;-70
2022/07/28 00:56:25;;;;;;;3.00;1.65;;;20.00;99.90;;;;;;4992158;28;20388;-71
2022/07/28 00:58:51;;;;;;;4.38;2.03;;;19.60;99.90;;;;;;4991538;28;20045;-71
2022/07/28 01:01:18;;;;;;;3.75;1.98;;;19.60;99.90;;;;;;4992387;28;20040;-71
2022/07/28 01:03:51;;;;;;;4.47;2.05;;;19.70;99.90;;;;;;4991418;28;20384;-71
2022/07/28 01:06:42;;;;;;;3.55;1.80;;;19.40;99.90;;;;;;4992729;28;20030;-70
2022/07/28 01:09:18;;;;;;;4.28;2.13;;;19.30;99.90;;;;;;4991142;28;20085;-71
2022/07/28 01:12:18;;;;;;;3.75;1.90;;;19.30;99.90;;;;;;4992772;28;20034;-70
2022/07/28 01:14:48;;;;;;;3.30;1.70;;;19.10;99.90;;;;;;4991710;28;20058;-71
2022/07/28 01:17:35;;;;;;;3.35;1.85;;;19.20;99.90;;;;;;4991145;28;20037;-70
2022/07/28 01:20:25;;;;;;;5.45;1.80;;;19.20;99.90;;;;;;4992906;28;20037;-71
2022/07/28 01:23:04;;;;;;;4.88;1.52;;;19.00;99.90;;;;;;4991496;28;20117;-71
2022/07/28 01:25:51;;;;;;;5.15;1.77;;;18.90;99.90;;;;;;4992584;28;20499;-71
2022/07/28 01:28:40;;;;;;;6.13;2.03;;;18.90;99.90;;;;;;4992015;28;20034;-71
2022/07/28 01:31:07;;;;;;;2.83;1.70;;;19.20;99.90;;;;;;4989691;28;20499;-71
2022/07/28 01:33:41;;;;;;;4.25;1.60;;;19.20;99.90;;;;;;4991394;28;20037;-71
2022/07/28 01:36:19;;;;;;;4.40;1.53;;;19.30;99.90;;;;;;4992298;28;20042;-71
2022/07/28 01:38:47;;;;;;;5.10;1.88;;;19.10;99.90;;;;;;4991352;28;20042;-71
2022/07/28 01:41:19;;;;;;;3.58;1.52;;;19.00;99.90;;;;;;4992024;28;20050;-70
2022/07/28 01:43:51;;;;;;;3.80;1.90;;;19.00;99.90;;;;;;4990567;28;20030;-71
2022/07/28 01:46:19;;;;;;;7.55;1.98;;;19.00;99.90;;;;;;4991428;28;20031;-71
2022/07/28 01:48:47;;;;;;;4.18;1.88;;;19.00;99.90;;;;;;4991323;28;20034;-70
2022/07/28 01:51:14;;;;;;;2.83;1.55;;;19.00;99.90;;;;;;4991992;28;20081;-71
2022/07/28 01:53:42;;;;;;;3.35;1.70;;;19.00;99.90;;;;;;4991064;28;20026;-71
2022/07/28 01:56:09;;;;;;;2.88;1.58;;;19.00;99.90;;;;;;4992195;28;20100;-71
2022/07/28 01:58:37;;;;;;;3.08;1.80;;;19.00;99.90;;;;;;4990623;28;20038;-71
2022/07/28 02:01:04;;;;;;;3.97;2.20;;;18.90;99.90;;;;;;4991106;28;20099;-70
2022/07/28 02:03:33;;;;;;;5.50;1.83;;;19.00;99.90;;;;;;4990782;28;20030;-71
2022/07/28 02:06:01;;;;;;;4.00;1.75;;;19.10;99.90;;;;;;4990821;28;20034;-71
2022/07/28 02:08:31;;;;;;;4.93;2.05;;;19.00;99.90;;;;;;4991922;28;20341;-71
2022/07/28 02:13:44;;;;;;;3.90;2.00;;;19.20;99.90;;;;;;4992722;28;20061;-70
2022/07/28 02:16:12;;;;;;;6.28;2.22;;;19.20;99.90;;;;;;4993910;28;20118;-70
2022/07/28 02:18:39;;;;;;;3.53;1.83;;;19.00;99.90;;;;;;4994642;28;20137;-70
2022/07/28 02:21:05;;;;;;;4.05;2.10;;;18.90;99.90;;;;;;4995089;28;20042;-70
2022/07/28 02:23:33;;;;;;;4.25;1.80;;;18.90;99.90;;;;;;4994829;28;20550;-70
2022/07/28 02:26:03;;;;;;;3.78;1.73;;;18.90;99.90;;;;;;4995470;28;20404;-71
2022/07/28 02:28:29;;;;;;;4.88;2.00;;;18.80;99.90;;;;;;4994924;28;20023;-71
2022/07/28 02:31:02;;;;;;;5.78;2.28;;;18.90;99.90;;;;;;4994558;28;20113;-70
2022/07/28 02:33:29;;;;;;;4.22;2.13;;;19.10;99.90;;;;;;4993995;28;20543;-71
2022/07/28 02:36:05;;;;;;;4.05;2.35;;;19.10;99.90;;;;;;4995523;28;20034;-70
2022/07/28 02:38:38;;;;;;;6.05;2.00;;;18.90;99.90;;;;;;4995017;28;20022;-70
2022/07/28 02:41:27;;;;;;;3.90;2.13;;;18.90;99.90;;;;;;4996005;28;20046;-70
2022/07/28 02:43:58;;;;;;;4.15;2.00;;;19.00;99.90;;;;;;4993797;28;20030;-70
2022/07/28 02:46:51;;;;;;;5.78;2.22;;;19.20;99.90;;;;;;4993608;28;20041;-71
2022/07/28 02:49:37;;;;;;;5.47;2.00;;;19.30;99.90;;;;;;4995092;28;20559;-71
2022/07/28 02:52:06;;;;;;;4.68;2.50;;;19.40;99.90;;;;;;4993979;28;20046;-70
2022/07/28 02:54:34;;;;;;;3.50;2.00;;;19.50;99.90;;;;;;4995695;28;20041;-71
2022/07/28 02:57:01;;;;;;;4.25;2.53;;;19.30;99.90;;;;;;4993325;28;20104;-71
2022/07/28 02:59:27;;;;;;;3.70;2.20;;;19.30;99.90;;;;;;4995339;28;20115;-71
2022/07/28 03:01:54;;;;;;;4.80;2.28;;;19.50;99.90;;;;;;4993329;28;20057;-71
2022/07/28 03:07:08;;;;;;;4.40;2.03;;;19.50;99.90;;;;;;4986276;28;20122;-70
2022/07/28 03:09:42;;;;;;;4.47;2.42;;;19.40;99.90;;;;;;4989252;28;20042;-70
2022/07/28 03:12:09;;;;;;;4.78;2.33;;;19.30;99.90;;;;;;4989977;28;20045;-70
2022/07/28 03:14:35;;;;;;;4.80;2.40;;;19.20;99.90;;;;;;4988980;28;20531;-71
2022/07/28 03:17:01;;;;;;;4.88;2.15;;;19.30;99.90;;;;;;4986542;28;20077;-70
2022/07/28 03:19:27;;;;;;;4.78;2.90;;;19.10;99.90;;;;;;4986326;28;20485;-70
2022/07/28 03:21:53;;;;;;;3.40;1.60;;;19.10;99.90;;;;;;4987824;28;20077;-70
2022/07/28 03:24:22;;;;;;;4.35;2.30;;;19.20;99.90;;;;;;4986268;28;20034;-70
2022/07/28 03:26:56;;;;;;;4.20;2.28;;;19.20;99.90;;;;;;4988435;28;20039;-70
2022/07/28 03:29:22;;;;;;;4.75;2.20;;;19.20;99.90;;;;;;4989436;28;20121;-70
2022/07/28 03:31:53;;;;;;;4.53;2.10;;;19.10;99.90;;;;;;4988751;28;20057;-71
2022/07/28 03:34:18;;;;;;;4.78;1.67;;;19.10;99.90;;;;;;4989494;28;20057;-71
2022/07/28 03:36:48;;;;;;;3.15;2.00;;;19.10;99.90;;;;;;4988744;28;20039;-71
2022/07/28 03:39:16;;;;;;;4.22;2.40;;;19.20;99.90;;;;;;4987877;28;20023;-71
2022/07/28 03:41:42;;;;;;;3.75;1.95;;;19.30;99.90;;;;;;4990562;28;20037;-70
2022/07/28 03:44:10;;;;;;;3.78;1.90;;;19.30;99.90;;;;;;4987912;28;20058;-71
2022/07/28 03:46:45;;;;;;;3.35;2.17;;;19.20;99.90;;;;;;4987485;28;20492;-71
2022/07/28 03:49:11;;;;;;;4.85;2.63;;;19.10;99.90;;;;;;4989509;28;20487;-70
2022/07/28 03:51:36;;;;;;;3.95;1.80;;;18.90;99.90;;;;;;4988266;28;20086;-70
2022/07/28 03:54:02;;;;;;;6.32;1.98;;;18.80;99.90;;;;;;4989911;28;20065;-70
2022/07/28 03:56:28;;;;;;;5.13;2.53;;;18.80;99.90;;;;;;4988484;28;20105;-71
2022/07/28 03:58:53;;;;;;;4.60;1.90;;;18.90;99.90;;;;;;4989700;28;20062;-70
2022/07/28 04:01:19;;;;;;;3.80;2.20;;;18.80;99.90;;;;;;4989079;28;20388;-70
2022/07/28 04:03:45;;;;;;;4.47;2.72;;;19.00;99.90;;;;;;4987648;28;20050;-71
2022/07/28 04:06:14;;;;;;;3.20;1.80;;;19.00;99.90;;;;;;4985366;28;20105;-70
2022/07/28 04:08:40;;;;;;;6.82;2.88;;;19.00;99.90;;;;;;4986338;28;20039;-70
2022/07/28 04:11:06;;;;;;;4.47;2.28;;;18.90;99.90;;;;;;4986094;28;20031;-70
2022/07/28 04:13:35;;;;;;;4.75;2.33;;;18.90;99.90;;;;;;4987832;28;20422;-70
2022/07/28 04:16:01;;;;;;;5.45;2.55;;;19.10;99.90;;;;;;4987065;28;20048;-71
2022/07/28 04:18:27;;;;;;;5.53;2.30;;;19.00;99.90;;;;;;4989002;28;20169;-70
2022/07/28 04:20:54;;;;;;;5.07;2.45;;;19.00;99.90;;;;;;4988473;28;20488;-71
2022/07/28 04:23:21;;;;;;;3.92;2.10;;;19.10;99.90;;;;;;4989418;28;20085;-70
2022/07/28 04:25:47;;;;;;;6.65;2.53;;;19.00;99.90;;;;;;4987575;28;20030;-70
2022/07/28 04:28:13;;;;;;;5.38;2.00;;;18.80;99.90;;;;;;4989491;28;20030;-71
2022/07/28 04:30:38;;;;;;;3.63;1.92;;;18.80;99.90;;;;;;4985667;28;20041;-70
2022/07/28 04:33:04;;;;;;;4.30;2.30;;;18.90;99.90;;;;;;4989735;28;20607;-70
2022/07/28 04:35:30;;;;;;;5.88;2.60;;;19.00;99.90;;;;;;4986718;28;20038;-70
2022/07/28 04:37:57;;;;;;;6.72;2.80;;;19.20;99.90;;;;;;4989162;28;20022;-70
2022/07/28 04:40:24;;;;;;;4.63;2.30;;;19.30;99.90;;;;;;4986804;28;20026;-70
2022/07/28 04:42:50;;;;;;;8.82;2.38;;;19.30;99.90;;;;;;4988855;28;20095;-70
2022/07/28 04:45:15;;;;;;;3.92;2.63;;;19.30;99.90;;;;;;4987540;28;20039;-70
2022/07/28 04:47:41;;;;;;;4.97;2.80;;;19.30;99.90;;;;;;4989016;28;20034;-70
2022/07/28 04:50:09;;;;;;;5.82;2.40;;;19.30;99.90;;;;;;4987268;28;20048;-70
2022/07/28 04:52:36;;;;;;;7.20;2.97;;;19.40;99.90;;;;;;4986355;28;20058;-71
2022/07/28 04:55:02;;;;;;;3.88;2.10;;;19.40;99.90;;;;;;4982605;28;20049;-70
2022/07/28 04:57:28;;;;;;;3.90;2.22;;;19.40;99.90;;;;;;4983750;28;20030;-70
2022/07/28 04:59:55;;;;;;;5.47;2.80;;;19.50;99.90;;;;;;4985050;28;20096;-70
2022/07/28 05:02:21;;;;;;;6.55;2.65;;;19.40;99.90;;;;;;4983478;28;20042;-70
2022/07/28 05:04:47;;;;;;;5.88;3.05;;;19.40;99.90;;;;;;4984559;28;20044;-70
2022/07/28 05:07:12;;;;;;;7.82;2.60;;;19.30;99.90;;;;;;4985312;28;20169;-70
2022/07/28 05:09:38;;;;;;;4.72;2.90;;;19.40;99.90;;;;;;4984112;28;20037;-70
2022/07/28 05:12:05;;;;;;;5.65;3.00;;;19.40;99.90;;;;;;4984292;28;20465;-71
2022/07/28 05:14:31;;;;;;;4.65;2.53;;;19.50;99.90;;;;;;4989554;28;20033;-70
2022/07/28 05:16:56;;;;;;;7.22;2.97;;;19.50;99.90;;;;;;5004587;28;20041;-70
2022/07/28 05:19:22;;;;;;;9.15;2.92;;;19.50;99.90;;;;;;4984266;28;20399;-70
2022/07/28 05:21:48;;;;;;;4.68;2.45;;;19.60;99.90;;;;;;4983926;28;20039;-70
2022/07/28 05:24:14;;;;;;;4.35;2.65;;;19.50;99.90;;;;;;4983351;28;20034;-70
2022/07/28 05:26:40;;;;;;;6.22;2.78;;;19.50;99.90;;;;;;4985267;28;20042;-70
2022/07/28 05:29:05;;;;;;;3.50;2.03;;;19.60;99.90;;;;;;4983762;28;20592;-70
2022/07/28 05:31:31;;;;;;;5.43;2.90;;;19.60;99.90;;;;;;4984483;28;20040;-70
2022/07/28 05:33:57;;;;;;;5.10;2.97;;;19.60;99.90;;;;;;4984163;28;20718;-70
2022/07/28 05:36:23;;;;;;;4.97;2.50;;;19.60;99.90;;;;;;4985205;28;20038;-70
2022/07/28 05:38:49;;;;;;;3.88;2.28;;;19.60;99.90;;;;;;4982911;28;20035;-70
2022/07/28 05:41:14;;;;;;;4.53;2.72;;;19.70;99.90;;;;;;4985005;28;20042;-70
2022/07/28 05:43:40;;;;;;;4.80;3.15;;;19.70;99.90;;;;;;4984492;28;20396;-70
2022/07/28 05:46:06;;;;;;;8.18;2.85;;;19.80;99.90;;;;;;4984472;28;20065;-70
2022/07/28 05:48:32;;;;;;;6.97;2.83;;;19.80;99.90;;;;;;4984118;28;20500;-70
2022/07/28 05:50:58;;;;;;;5.20;2.88;;;19.70;99.90;;;;;;4984391;28;20034;-70
2022/07/28 05:53:23;;;;;;;5.10;2.47;;;19.80;99.90;;;;;;4983839;28;20038;-70
2022/07/28 05:55:50;;;;;;;4.65;2.40;;;19.90;99.90;;;;;;4983780;28;20022;-70
2022/07/28 05:58:19;;;;;;;4.43;2.80;;;19.90;99.90;;;;;;4982777;28;20113;-70
2022/07/28 06:00:44;;;;;;;9.77;2.75;;;20.10;99.90;;;;;;4984349;28;20040;-70
2022/07/28 06:03:10;;;;;;;4.78;2.40;;;20.20;99.90;;;;;;4981888;28;20030;-70
2022/07/28 06:05:36;;;;;;;4.95;2.83;;;20.30;99.90;;;;;;4983561;28;20022;-71
2022/07/28 06:08:02;;;;;;;6.55;2.55;;;20.40;99.90;;;;;;4983391;28;20488;-70
2022/07/28 06:10:57;;;;;;;5.07;2.95;;;20.60;99.90;;;;;;4984717;28;20035;-70
2022/07/28 06:13:17;;;;;;;4.93;2.58;;;20.80;99.90;;;;;;4983436;28;20034;-70
2022/07/28 06:15:46;;;;;;;5.05;2.60;;;20.70;99.90;;;;;;4984547;28;20497;-71
2022/07/28 06:18:12;;;;;;;6.22;2.85;;;20.50;99.90;;;;;;4982861;28;20539;-71
2022/07/28 06:20:37;;;;;;;7.53;3.03;;;20.50;99.90;;;;;;4982475;28;20030;-70
2022/07/28 06:23:04;;;;;;;4.03;2.67;;;20.50;99.90;;;;;;4983210;28;20117;-70
2022/07/28 06:25:30;;;;;;;6.13;2.70;;;20.50;99.90;;;;;;4982148;28;20141;-70
2022/07/28 06:27:58;;;;;;;4.65;2.78;;;20.50;99.90;;;;;;4982883;28;20046;-70
2022/07/28 06:30:24;;;;;;;4.90;2.50;;;20.50;99.90;;;;;;4980930;28;21414;-70
2022/07/28 06:32:50;;;;;;;7.25;2.53;;;20.50;99.90;;;;;;4982713;28;20078;-70
2022/07/28 06:35:16;;;;;;;6.18;2.85;;;20.50;99.90;;;;;;4988633;28;20038;-70
2022/07/28 06:37:43;;;;;;;10.98;3.72;;;20.50;99.90;;;;;;4987627;28;20054;-70
2022/07/28 06:40:12;;;;;;;3.50;2.30;;;20.60;99.90;;;;;;4968254;28;20030;-71
2022/07/28 06:42:39;;;;;;;4.70;2.55;;;20.80;99.90;;;;;;4980843;28;20389;-71
2022/07/28 06:45:06;;;;;;;5.95;2.90;;;20.90;99.90;;;;;;4976254;28;20042;-71
2022/07/28 06:47:32;;;;;;;7.28;2.70;;;20.80;99.90;;;;;;4981915;28;20517;-71
2022/07/28 06:49:58;;;;;;;5.28;2.80;;;20.90;99.90;;;;;;4984710;28;20612;-71
2022/07/28 06:52:25;;;;;;;6.72;2.38;;;20.90;99.90;;;;;;4983897;28;20054;-71
2022/07/28 06:54:52;;;;;;;8.45;3.08;;;21.10;99.90;;;;;;4984682;28;20034;-71
2022/07/28 06:57:20;;;;;;;4.68;2.70;;;21.10;99.90;;;;;;4981093;28;20034;-71
2022/07/28 06:59:46;;;;;;;5.65;3.25;;;21.00;99.90;;;;;;4986875;28;20519;-71
2022/07/28 07:02:12;;;;;;;5.10;2.95;;;21.20;99.90;;;;;;4987960;28;20106;-71
2022/07/28 07:04:38;;;;;;;6.82;2.38;;;21.40;99.90;;;;;;4987585;28;20035;-71
2022/07/28 07:07:04;;;;;;;4.60;2.90;;;21.70;99.90;;;;;;4987846;28;20034;-71
2022/07/28 07:09:30;;;;;;;4.95;2.67;;;21.90;99.90;;;;;;4988309;28;20034;-71
2022/07/28 07:11:55;;;;;;;7.78;2.95;;;22.10;99.90;;;;;;4988047;28;20038;-71
2022/07/28 07:14:21;;;;;;;4.28;2.80;;;22.30;99.90;;;;;;4987572;28;20048;-71
2022/07/28 07:16:47;;;;;;;4.22;2.58;;;22.50;99.90;;;;;;4987525;28;20392;-71
2022/07/28 07:19:12;;;;;;;4.78;2.67;;;22.60;99.90;;;;;;4987523;28;20105;-71
2022/07/28 07:21:38;;;;;;;3.38;2.22;;;22.80;99.90;;;;;;4987483;28;20169;-71
2022/07/28 07:24:04;;;;;;;4.38;2.78;;;22.90;99.90;;;;;;4987654;28;20046;-71
2022/07/28 07:26:30;;;;;;;4.38;2.38;;;23.30;99.90;;;;;;4987640;28;20043;-73
2022/07/28 07:28:55;;;;;;;5.85;2.35;;;24.00;99.90;;;;;;4987410;28;20042;-70
2022/07/28 07:31:21;;;;;;;5.72;2.75;;;24.80;99.90;;;;;;4987970;28;20030;-73
2022/07/28 07:33:47;;;;;;;6.55;2.80;;;25.70;99.90;;;;;;4987117;28;20594;-72
2022/07/28 07:36:12;;;;;;;5.38;2.42;;;26.60;99.50;;;;;;4987225;28;20030;-72
2022/07/28 07:38:38;;;;;;;5.53;2.65;;;27.20;97.60;;;;;;4988570;28;20080;-73
2022/07/28 07:41:04;;;;;;;7.00;2.88;;;27.70;97.10;;;;;;5006840;28;20456;-72
2022/07/28 07:43:30;;;;;;;4.70;3.08;;;28.20;96.40;;;;;;5006410;28;20041;-72
2022/07/28 07:45:55;;;;;;;4.68;2.60;;;28.30;95.90;;;;;;4987979;28;20030;-72
2022/07/28 07:48:21;;;;;;;7.32;2.38;;;28.60;96.10;;;;;;4998407;28;20041;-72
2022/07/28 07:50:47;;;;;;;4.80;2.17;;;28.90;94.70;;;;;;5006332;28;20042;-72
2022/07/28 07:53:12;;;;;;;5.65;2.90;;;28.90;94.90;;;;;;4987224;28;20036;-72
2022/07/28 07:55:38;;;;;;;6.90;3.53;;;28.50;95.10;;;;;;4986338;28;20038;-71
2022/07/28 07:58:04;;;;;;;6.38;2.88;;;28.50;96.00;;;;;;4986876;28;20030;-72
2022/07/28 08:00:30;;;;;;;8.00;3.50;;;28.30;95.10;;;;;;4986727;28;20050;-72
2022/07/28 08:02:56;;;;;;;5.18;3.30;;;28.40;96.30;;;;;;4986944;28;20042;-72
2022/07/28 08:05:22;;;;;;;5.30;3.10;;;28.30;95.80;;;;;;4986619;28;20393;-72
2022/07/28 08:07:47;;;;;;;6.82;3.17;;;26.80;97.80;;;;;;4986626;28;20034;-72
2022/07/28 08:10:13;;;;;;;6.65;3.42;;;25.60;99.80;;;;;;4986827;28;20057;-72
2022/07/28 08:12:39;;;;;;;5.63;3.10;;;25.40;99.90;;;;;;4985647;28;20623;-72
2022/07/28 08:15:05;;;;;;;6.72;2.88;;;26.60;99.90;;;;;;4986506;28;20524;-72
2022/07/28 08:17:31;;;;;;;4.72;2.83;;;27.30;98.30;;;;;;4986969;28;20070;-72
2022/07/28 08:19:57;;;;;;;5.10;2.53;;;27.40;97.70;;;;;;4986526;28;20054;-72
2022/07/28 08:22:23;;;;;;;6.97;3.13;;;27.00;96.70;;;;;;4986100;28;20046;-73
2022/07/28 08:24:49;;;;;;;7.47;3.22;;;27.40;97.40;;;;;;4986351;28;20042;-72
2022/07/28 08:27:14;;;;;;;7.13;3.17;;;27.30;96.90;;;;;;4985739;28;20544;-72
2022/07/28 08:29:40;;;;;;;4.53;2.80;;;26.70;98.40;;;;;;4985908;28;20133;-72
2022/07/28 08:32:06;;;;;;;7.63;3.10;;;26.30;99.40;;;;;;4986186;28;20030;-72
2022/07/28 08:34:33;;;;;;;5.45;3.20;;;25.40;99.50;;;;;;4986197;28;20037;-72
2022/07/28 08:37:00;;;;;;;6.00;3.17;;;24.90;99.90;;;;;;4986214;28;20034;-72
2022/07/28 08:39:26;;;;;;;4.63;2.50;;;25.30;99.90;;;;;;4986211;28;20044;-72
2022/07/28 08:42:01;;;;;;;4.60;3.10;;;25.40;99.50;;;;;;4985823;28;20038;-72
2022/07/28 08:44:36;;;;;;;5.30;3.22;;;25.60;99.90;;;;;;4986429;28;20030;-71
2022/07/28 08:47:02;;;;;;;5.50;2.85;;;25.20;99.90;;;;;;4985930;28;20030;-71
2022/07/28 08:49:30;;;;;;;3.67;2.13;;;25.50;99.80;;;;;;4986589;28;20023;-71
2022/07/28 08:51:58;;;;;;;5.85;3.20;;;25.40;99.90;;;;;;4985603;28;20119;-71
2022/07/28 08:54:27;;;;;;;5.68;2.60;;;25.30;99.90;;;;;;4985168;28;20053;-71
2022/07/28 08:56:54;;;;;;;6.72;3.40;;;25.60;99.90;;;;;;4985638;28;20030;-71
2022/07/28 08:59:20;;;;;;;5.50;3.10;;;25.60;99.90;;;;;;4985191;28;20040;-71
2022/07/28 09:01:46;;;;;;;7.85;3.30;;;25.40;99.90;;;;;;4985617;28;20105;-71
2022/07/28 09:04:13;;;;;;;4.60;3.10;;;25.50;99.90;;;;;;4982878;28;20038;-71
2022/07/28 09:06:41;;;;;;;6.80;3.30;;;25.70;99.90;;;;;;4985453;28;20547;-71
2022/07/28 09:09:08;;;;;;;6.25;3.22;;;25.50;99.90;;;;;;4981898;28;20030;-71
2022/07/28 09:11:37;;;;;;;6.72;3.33;;;25.50;99.90;;;;;;4985681;28;20034;-71
2022/07/28 09:14:04;;;;;;;4.88;3.47;;;25.50;99.90;;;;;;4985225;28;20523;-71
2022/07/28 09:16:31;;;;;;;7.20;3.63;;;25.50;99.90;;;;;;4985736;28;20042;-72
2022/07/28 09:18:56;;;;;;;6.72;2.85;;;25.90;99.90;;;;;;4984908;28;20030;-71
2022/07/28 09:21:22;;;;;;;7.68;3.63;;;26.10;99.90;;;;;;4984800;28;20042;-71
2022/07/28 09:23:49;;;;;;;32.40;5.22;;;26.20;99.90;;;;;;4984531;28;20109;-71
2022/07/28 09:26:16;;;;;;;5.07;2.90;;;26.30;99.50;;;;;;4984565;28;20026;-71
2022/07/28 09:28:50;;;;;;;7.72;3.10;;;26.60;99.90;;;;;;4984489;28;20034;-71
2022/07/28 09:31:17;;;;;;;6.20;3.00;;;26.50;98.40;;;;;;4984028;28;20224;-71
2022/07/28 09:34:03;;;;;;;5.93;3.08;;;26.20;98.40;;;;;;4984501;28;20022;-71
2022/07/28 09:36:37;;;;;;;5.43;2.97;;;26.60;99.40;;;;;;4984779;28;20435;-71
2022/07/28 09:39:03;;;;;;;7.18;3.22;;;26.70;98.90;;;;;;4985084;28;20083;-71
2022/07/28 09:41:48;;;;;;;5.68;2.72;;;26.80;98.90;;;;;;4985617;28;20070;-71
2022/07/28 09:44:18;;;;;;;7.75;3.25;;;27.00;98.50;;;;;;4984935;28;20042;-72
2022/07/28 09:46:44;;;;;;;5.13;3.25;;;27.10;99.30;;;;;;4985410;28;20092;-71
2022/07/28 09:49:10;;;;;;;6.47;3.70;;;27.00;98.50;;;;;;4985554;28;20038;-72
2022/07/28 09:51:36;;;;;;;4.43;3.20;;;27.20;98.20;;;;;;4985008;28;20043;-71
2022/07/28 09:54:13;;;;;;;4.60;3.22;;;26.90;97.90;;;;;;4989277;28;20497;-71
2022/07/28 09:56:42;;;;;;;6.70;2.97;;;27.10;98.50;;;;;;4985169;28;20044;-71
2022/07/28 09:59:08;;;;;;;4.45;2.60;;;27.40;97.90;;;;;;4984573;28;20030;-71
2022/07/28 10:01:53;;;;;;;5.13;2.88;;;27.70;98.50;;;;;;4985040;28;20086;-71
2022/07/28 10:04:50;;;;;;;4.78;3.00;;;27.70;97.30;;;;;;4990488;28;20030;-71
2022/07/28 10:07:18;;;;;;;5.30;2.60;;;27.70;97.90;;;;;;4990460;28;20092;-71
2022/07/28 10:09:59;;;;;;;4.43;2.70;;;27.70;96.60;;;;;;4992280;28;20018;-71
2022/07/28 10:12:27;;;;;;;4.47;2.85;;;27.60;96.60;;;;;;4986750;28;20026;-72
2022/07/28 10:14:54;;;;;;;6.07;3.00;;;27.60;96.00;;;;;;4990743;28;20030;-71
2022/07/28 10:17:28;;;;;;;5.35;2.85;;;28.10;96.90;;;;;;4987862;28;20815;-71
2022/07/28 10:20:05;;;;;;;4.20;2.70;;;28.20;97.00;;;;;;4985552;28;20065;-71
2022/07/28 10:22:36;;;;;;;4.75;2.80;;;28.40;96.00;;;;;;4990053;28;20488;-71
2022/07/28 10:25:08;;;;;;;5.47;2.80;;;28.70;96.50;;;;;;4994013;28;20037;-72
2022/07/28 10:27:35;;;;;;;5.63;3.25;;;28.80;96.30;;;;;;5000352;28;20062;-71
2022/07/28 10:30:03;;;;;;;6.32;3.75;;;28.80;95.90;;;;;;4995162;28;20113;-71
2022/07/28 10:32:37;;;;;;;4.80;3.10;;;29.00;95.90;;;;;;4983549;28;20041;-71
2022/07/28 10:35:06;;;;;;;4.28;2.97;;;28.90;95.80;;;;;;4989916;28;20362;-71
2022/07/28 10:37:38;;;;;;;4.68;3.22;;;28.60;95.70;;;;;;4987852;28;20042;-71
2022/07/28 10:40:07;;;;;;;5.10;3.05;;;28.70;95.20;;;;;;4988599;28;20038;-71
2022/07/28 10:42:33;;;;;;;6.78;3.20;;;29.00;95.80;;;;;;4988165;28;20046;-72
2022/07/28 10:45:01;;;;;;;6.25;3.42;;;29.40;95.10;;;;;;4987484;28;20078;-71
2022/07/28 10:47:27;;;;;;;5.80;3.35;;;29.10;95.40;;;;;;4987471;28;20652;-71
2022/07/28 10:49:53;;;;;;;4.53;3.13;;;29.30;95.50;;;;;;4988791;28;20028;-71
2022/07/28 10:52:20;;;;;;;10.20;3.10;;;29.30;94.90;;;;;;4987310;28;20046;-72
2022/07/28 10:55:07;;;;;;;6.28;2.78;;;29.20;95.00;;;;;;4988433;28;20064;-72
2022/07/28 10:57:37;;;;;;;5.43;2.70;;;29.10;94.30;;;;;;4987756;28;20640;-73
2022/07/28 11:00:18;;;;;;;4.72;2.80;;;29.90;95.00;;;;;;4987657;28;20089;-72
2022/07/28 11:02:52;;;;;;;4.07;2.15;;;30.20;93.60;;;;;;4987757;28;21093;-72
2022/07/28 11:05:29;;;;;;;4.32;2.35;;;30.00;92.50;;;;;;5002077;28;20030;-72
2022/07/28 11:07:57;;;;;;;4.68;2.40;;;30.20;91.70;;;;;;5007452;28;20487;-73
2022/07/28 11:10:23;;;;;;;4.70;2.60;;;29.90;91.40;;;;;;4990713;28;20507;-73
2022/07/28 11:12:57;;;;;;;3.55;2.20;;;30.30;91.90;;;;;;4988068;28;20066;-72
2022/07/28 11:15:31;;;;;;;3.80;2.28;;;30.70;91.30;;;;;;4987591;28;20061;-72
2022/07/28 11:17:58;;;;;;;4.07;2.60;;;30.70;90.70;;;;;;4988202;28;20472;-72
2022/07/28 11:20:49;;;;;;;4.43;2.40;;;30.90;90.00;;;;;;4987297;28;20042;-73
2022/07/28 11:23:42;;;;;;;13.43;2.90;;;31.10;90.00;;;;;;4987954;28;20125;-72
2022/07/28 11:26:23;;;;;;;4.30;2.60;;;31.00;89.50;;;;;;4988014;28;20030;-73
2022/07/28 11:29:02;;;;;;;6.00;2.58;;;31.20;90.20;;;;;;4987034;28;20121;-73
2022/07/28 11:31:43;;;;;;;3.88;2.40;;;31.70;89.60;;;;;;4986828;28;20037;-72
2022/07/28 11:34:13;;;;;;;5.13;2.50;;;31.90;90.40;;;;;;4986739;28;20049;-71
2022/07/28 11:37:09;;;;;;;5.55;2.97;;;31.50;88.60;;;;;;4987166;28;20038;-72
2022/07/28 11:39:41;;;;;;;4.60;2.97;;;31.50;91.70;;;;;;4985919;28;20034;-71
2022/07/28 11:42:26;;;;;;;5.93;3.08;;;31.50;91.40;;;;;;4986741;28;20038;-72
2022/07/28 11:44:54;;;;;;;5.43;3.40;;;31.40;91.50;;;;;;4986978;28;20093;-71
2022/07/28 11:47:24;;;;;;;5.60;3.00;;;31.00;92.50;;;;;;4986827;28;20044;-71
2022/07/28 11:50:09;;;;;;;4.97;3.22;;;30.90;92.50;;;;;;4987172;28;20026;-71
2022/07/28 11:52:36;;;;;;;5.60;3.22;;;30.90;92.80;;;;;;4986551;28;20038;-71
2022/07/28 11:55:02;;;;;;;4.70;2.97;;;30.90;91.80;;;;;;4987045;28;20048;-72
2022/07/28 11:57:28;;;;;;;6.85;3.28;;;31.30;92.30;;;;;;4991668;28;20030;-71
2022/07/28 11:59:56;;;;;;;3.95;2.35;;;31.40;92.30;;;;;;4987139;28;20045;-71
2022/07/28 12:02:27;;;;;;;7.75;3.08;;;31.80;92.10;;;;;;4988210;28;20040;-71
2022/07/28 12:05:10;;;;;;;4.25;2.88;;;31.50;90.70;;;;;;4983952;28;20501;-71
2022/07/28 12:07:39;;;;;;;5.10;2.88;;;31.70;91.40;;;;;;4985833;28;20034;-71
2022/07/28 12:10:24;;;;;;;5.78;3.35;;;31.60;90.30;;;;;;4986894;28;20042;-71
2022/07/28 12:13:00;;;;;;;4.07;2.25;;;31.50;87.70;;;;;;4986950;28;20049;-72
2022/07/28 12:15:27;;;;;;;4.28;2.30;;;31.50;87.20;;;;;;4986446;28;20546;-71
2022/07/28 12:17:53;;;;;;;4.95;2.80;;;31.60;87.10;;;;;;4986680;28;20110;-71
2022/07/28 12:20:19;;;;;;;3.40;2.00;;;31.50;86.50;;;;;;4988643;28;20113;-71
2022/07/28 12:23:09;;;;;;;3.35;2.15;;;31.60;86.70;;;;;;4989179;28;20053;-72
2022/07/28 12:25:43;;;;;;;5.43;2.60;;;31.50;86.80;;;;;;4989103;28;20035;-71
2022/07/28 12:28:21;;;;;;;3.42;2.20;;;31.50;87.00;;;;;;4989442;28;20117;-71
2022/07/28 12:30:48;;;;;;;6.65;2.53;;;31.10;86.00;;;;;;4989150;28;20045;-71
2022/07/28 12:33:22;;;;;;;5.38;2.65;;;31.30;87.40;;;;;;4989430;28;20436;-71
2022/07/28 12:35:50;;;;;;;4.15;2.47;;;31.00;86.20;;;;;;4989094;28;20034;-72
2022/07/28 12:38:19;;;;;;;4.85;2.50;;;31.20;85.90;;;;;;4989860;28;20042;-72
2022/07/28 12:40:45;;;;;;;3.92;2.22;;;30.70;85.00;;;;;;4989331;28;20066;-71
2022/07/28 12:43:11;;;;;;;4.63;2.83;;;30.90;86.80;;;;;;4989196;28;20046;-72
2022/07/28 12:45:47;;;;;;;4.55;2.55;;;30.80;87.50;;;;;;4989157;28;20069;-72
2022/07/28 12:48:13;;;;;;;4.05;2.50;;;30.90;86.10;;;;;;4989101;28;20093;-71
2022/07/28 12:50:40;;;;;;;4.38;2.25;;;31.10;84.90;;;;;;4976773;28;20026;-72
2022/07/28 12:53:10;;;;;;;4.65;2.40;;;31.20;85.30;;;;;;4985229;28;20568;-72
2022/07/28 12:55:37;;;;;;;3.88;2.25;;;31.40;86.60;;;;;;4985116;28;20034;-72
2022/07/28 12:58:04;;;;;;;5.72;2.60;;;31.60;86.00;;;;;;4984884;28;20550;-72
2022/07/28 13:00:33;;;;;;;6.43;2.92;;;32.00;86.50;;;;;;4983723;28;20068;-72